Terminal Aerodrome Forecast
Issued by NWS

Home | Current Version | Previous Version | Text Only | Print | Product List | Glossary On
Versions: 1 2 3 4 5 6 7 8 9 10 11 12 13 14 15 16 17 18 19 20 21 22 23 24 25 26 27 28 29 30 31 32 33 34 35
551
FTUS45 KTWC 241140
TAFOLS
TAF
KOLS 241140Z 2412/2512 17012KT P6SM FEW025 OVC040
      TEMPO 2412/2414 VRB20G35KT 4SM TSRA SCT020 BKN035CB
     FM241500 17007KT P6SM FEW040 SCT100 BKN250
     FM242000 29012KT P6SM SCT080 SCT120
     FM242300 31011G17KT P6SM SCT070 BKN110
     FM250300 19005KT P6SM SCT100 BKN250=

USA.gov is the U.S. government's official web portal to all federal, state and local government web resources and services.